createdAt,value
2024-05-09T00:03:10.820Z,10.10
2024-05-09T00:07:16.610Z,9.90
2024-05-09T00:11:24.070Z,9.90
2024-05-09T00:15:28.930Z,9.90
2024-05-09T00:19:34.007Z,9.80
2024-05-09T00:23:38.867Z,9.70
2024-05-09T00:27:46.192Z,9.80
2024-05-09T00:31:51.097Z,9.70
2024-05-09T00:35:55.848Z,9.70
2024-05-09T00:40:09.584Z,9.70
2024-05-09T00:44:19.692Z,9.70
2024-05-09T00:48:24.489Z,9.60
2024-05-09T00:52:30.438Z,9.50
2024-05-09T00:56:36.918Z,9.50
2024-05-09T01:00:44.681Z,9.50
2024-05-09T01:04:49.758Z,9.40
2024-05-09T01:08:54.923Z,9.30
2024-05-09T01:13:05.035Z,9.30
2024-05-09T01:17:17.126Z,9.30
2024-05-09T01:21:22.098Z,9.20
2024-05-09T01:25:36.473Z,9.20
2024-05-09T01:29:53.445Z,9.10
2024-05-09T01:33:58.553Z,9.00
2024-05-09T01:38:03.431Z,9.00
2024-05-09T01:42:11.213Z,8.90
2024-05-09T01:46:17.093Z,8.90
2024-05-09T01:50:33.234Z,8.80
2024-05-09T01:54:42.482Z,8.70
2024-05-09T01:58:49.865Z,8.60
2024-05-09T02:02:54.952Z,8.60
2024-05-09T02:06:59.944Z,8.60
2024-05-09T02:11:04.799Z,8.50
2024-05-09T02:15:12.274Z,8.60
2024-05-09T02:19:17.245Z,8.60
2024-05-09T02:23:22.435Z,8.50
2024-05-09T02:27:27.157Z,8.50
2024-05-09T02:31:34.390Z,8.50
2024-05-09T02:35:39.066Z,8.40
2024-05-09T02:39:43.664Z,8.40
2024-05-09T02:43:48.447Z,8.40
2024-05-09T02:47:56.004Z,8.30
2024-05-09T02:52:00.891Z,8.30
2024-05-09T02:56:05.666Z,8.20
2024-05-09T03:00:18.492Z,8.10
2024-05-09T03:04:30.012Z,8.10
2024-05-09T03:08:34.831Z,8.00
2024-05-09T03:12:39.644Z,7.90
2024-05-09T03:16:44.742Z,8.00
2024-05-09T03:20:52.124Z,8.00
2024-05-09T03:24:54.332Z,8.00
2024-05-09T03:28:59.031Z,8.00
2024-05-09T03:33:01.315Z,8.00
2024-05-09T03:37:08.823Z,7.90
2024-05-09T03:41:15.185Z,7.90
2024-05-09T03:45:19.950Z,7.80
2024-05-09T03:49:25.210Z,7.80
2024-05-09T03:53:32.717Z,7.70
2024-05-09T03:57:39.167Z,7.70
2024-05-09T04:01:44.391Z,7.70
2024-05-09T04:05:49.219Z,7.70
2024-05-09T04:09:56.531Z,7.80
2024-05-09T04:14:01.139Z,7.70
2024-05-09T04:18:06.185Z,7.80
2024-05-09T04:22:11.984Z,7.90
2024-05-09T04:26:19.338Z,8.00
2024-05-09T04:30:34.324Z,8.00
2024-05-09T04:34:43.418Z,8.10
2024-05-09T04:38:48.349Z,8.20
2024-05-09T04:42:55.714Z,8.30
2024-05-09T04:47:00.661Z,8.40
2024-05-09T04:51:06.054Z,8.50
2024-05-09T04:55:11.062Z,8.70
2024-05-09T04:59:18.422Z,8.80
2024-05-09T05:03:23.277Z,8.90
2024-05-09T05:07:28.201Z,9.10
2024-05-09T05:11:32.962Z,9.20
2024-05-09T05:15:37.703Z,9.30
2024-05-09T05:19:46.347Z,9.50
2024-05-09T05:23:51.172Z,9.60
2024-05-09T05:27:55.833Z,11.50
2024-05-09T05:32:03.338Z,11.40
2024-05-09T05:36:09.280Z,12.20
2024-05-09T05:40:24.763Z,13.80
2024-05-09T05:44:33.378Z,14.20
2024-05-09T05:48:40.871Z,14.50
2024-05-09T05:52:45.799Z,14.40
2024-05-09T05:56:50.502Z,14.30
2024-05-09T06:00:56.230Z,14.20
2024-05-09T06:05:03.582Z,14.10
2024-05-09T06:09:08.275Z,13.90
2024-05-09T06:13:14.246Z,13.90
2024-05-09T06:17:19.457Z,13.80
2024-05-09T06:21:26.747Z,13.90
2024-05-09T06:25:31.523Z,14.10
2024-05-09T06:29:35.971Z,13.90
2024-05-09T06:37:48.926Z,14.40
2024-05-09T06:41:53.721Z,14.50
2024-05-09T06:45:58.357Z,14.90
2024-05-09T06:50:03.736Z,15.00
2024-05-09T06:54:12.314Z,15.30
2024-05-09T07:02:22.116Z,15.40
2024-05-09T07:06:26.813Z,15.50
2024-05-09T07:10:35.647Z,15.60
2024-05-09T07:14:41.117Z,15.60
2024-05-09T07:18:55.327Z,16.00
2024-05-09T07:23:01.041Z,18.20
2024-05-09T07:27:08.431Z,19.00
2024-05-09T07:31:13.778Z,19.10
2024-05-09T07:35:18.412Z,20.70
2024-05-09T07:39:23.442Z,21.90
2024-05-09T07:43:30.715Z,22.40
2024-05-09T07:48:57.782Z,22.60
2024-05-09T07:53:27.121Z,22.70
2024-05-09T08:01:02.719Z,22.10
2024-05-09T08:05:08.359Z,21.90
2024-05-09T08:09:16.658Z,21.80
2024-05-09T08:13:24.119Z,21.60
2024-05-09T08:17:31.453Z,21.40
2024-05-09T08:21:36.235Z,21.70
2024-05-09T08:25:43.761Z,21.70
2024-05-09T08:29:48.501Z,22.00
2024-05-09T08:33:56.681Z,22.60
2024-05-09T08:38:01.823Z,22.60
2024-05-09T08:42:08.769Z,22.90
2024-05-09T08:46:15.125Z,23.00
2024-05-09T08:50:32.287Z,23.10
2024-05-09T08:54:43.273Z,22.90
2024-05-09T09:02:54.725Z,23.20
2024-05-09T09:07:03.556Z,23.40
2024-05-09T09:11:08.884Z,24.00
2024-05-09T09:15:13.849Z,24.10
2024-05-09T09:19:18.688Z,24.10
2024-05-09T09:23:27.923Z,23.90
2024-05-09T09:27:32.666Z,24.00
2024-05-09T09:31:39.330Z,24.30
2024-05-09T09:35:44.071Z,24.00
2024-05-09T09:39:52.591Z,23.60
2024-05-09T09:43:59.669Z,23.50
2024-05-09T09:48:05.409Z,23.90
2024-05-09T09:52:11.345Z,24.10
2024-05-09T09:56:21.330Z,24.00
2024-05-09T10:00:33.038Z,24.10
2024-05-09T10:04:39.625Z,24.50
2024-05-09T10:08:42.366Z,24.30
2024-05-09T10:13:00.514Z,24.30
2024-05-09T10:17:08.733Z,24.50
2024-05-09T10:21:20.118Z,24.50
2024-05-09T10:25:25.372Z,24.40
2024-05-09T10:29:32.782Z,24.50
2024-05-09T10:33:41.662Z,24.60
2024-05-09T10:37:46.837Z,24.50
2024-05-09T10:41:52.182Z,24.40
2024-05-09T10:45:56.987Z,24.50
2024-05-09T10:50:02.101Z,24.50
2024-05-09T10:54:07.829Z,24.30
2024-05-09T10:58:19.915Z,24.40
2024-05-09T11:02:24.833Z,24.40
2024-05-09T11:06:29.781Z,24.10
2024-05-09T11:10:34.962Z,23.90
2024-05-09T11:14:39.756Z,23.60
2024-05-09T11:18:47.364Z,23.80
2024-05-09T11:22:54.992Z,23.90
2024-05-09T11:27:00.071Z,23.90
2024-05-09T11:31:10.167Z,24.00
2024-05-09T11:35:18.188Z,24.20
2024-05-09T11:39:23.018Z,24.30
2024-05-09T11:43:27.881Z,24.50
2024-05-09T11:47:33.348Z,24.50
2024-05-09T11:51:38.291Z,24.40
2024-05-09T11:55:43.316Z,24.50
2024-05-09T11:59:48.214Z,24.50
2024-05-09T12:03:54.977Z,24.60
2024-05-09T12:08:02.890Z,24.40
2024-05-09T12:12:08.379Z,24.20
2024-05-09T12:16:13.510Z,24.20
2024-05-09T12:20:28.091Z,24.00
2024-05-09T12:24:40.436Z,24.30
2024-05-09T12:28:45.775Z,24.40
2024-05-09T12:32:50.630Z,24.40
2024-05-09T12:36:55.721Z,24.30
2024-05-09T12:41:03.474Z,24.00
2024-05-09T12:45:20.978Z,24.00
2024-05-09T12:49:27.450Z,24.20
2024-05-09T12:53:32.393Z,24.30
2024-05-09T12:57:39.715Z,24.00
2024-05-09T13:01:44.362Z,24.20
2024-05-09T13:05:49.568Z,24.40
2024-05-09T13:09:54.621Z,24.30
2024-05-09T13:14:02.097Z,24.30
2024-05-09T13:18:07.801Z,24.60
2024-05-09T13:22:12.749Z,24.80
2024-05-09T13:26:17.502Z,24.70
2024-05-09T13:30:33.749Z,24.30
2024-05-09T13:34:43.582Z,24.10
2024-05-09T13:38:48.510Z,23.60
2024-05-09T13:42:53.176Z,23.70
2024-05-09T13:47:00.807Z,24.10
2024-05-09T13:51:05.631Z,24.40
2024-05-09T13:55:10.924Z,24.90
2024-05-09T13:59:15.870Z,25.20
2024-05-09T14:03:24.652Z,24.90
2024-05-09T14:07:29.368Z,25.60
2024-05-09T14:11:34.026Z,26.50
2024-05-09T14:15:38.969Z,27.00
2024-05-09T14:19:46.362Z,27.50
2024-05-09T14:23:51.081Z,27.70
2024-05-09T14:27:55.979Z,27.60
2024-05-09T14:32:00.954Z,27.70
2024-05-09T14:36:08.770Z,27.90
2024-05-09T14:40:25.968Z,27.80
2024-05-09T14:44:35.894Z,27.80
2024-05-09T14:48:41.002Z,27.50
2024-05-09T14:52:48.417Z,28.00
2024-05-09T14:56:54.819Z,28.10
2024-05-09T15:00:59.787Z,28.00
2024-05-09T15:05:06.924Z,28.00
2024-05-09T15:09:14.288Z,28.10
2024-05-09T15:13:19.037Z,28.40
2024-05-09T15:17:23.853Z,28.20
2024-05-09T15:21:28.602Z,28.00
2024-05-09T15:25:36.838Z,28.00
2024-05-09T15:29:42.220Z,28.00
2024-05-09T15:33:46.910Z,28.00
2024-05-09T15:37:51.717Z,28.30
2024-05-09T15:41:59.657Z,28.20
2024-05-09T15:46:04.767Z,28.30
2024-05-09T15:50:14.746Z,28.20
2024-05-09T15:54:25.622Z,28.00
2024-05-09T15:58:33.108Z,27.90
2024-05-09T16:02:37.848Z,27.80
2024-05-09T16:06:46.892Z,27.70
2024-05-09T16:10:51.750Z,27.30
2024-05-09T16:14:59.088Z,27.30
2024-05-09T16:19:03.776Z,27.40
2024-05-09T16:23:09.129Z,27.20
2024-05-09T16:27:14.368Z,27.00
2024-05-09T16:31:21.658Z,26.70
2024-05-09T16:35:26.272Z,26.70
2024-05-09T16:39:30.981Z,26.70
2024-05-09T16:43:35.963Z,26.40
2024-05-09T16:47:43.331Z,25.80
2024-05-09T16:51:48.105Z,25.20
2024-05-09T16:55:52.828Z,24.70
2024-05-09T16:59:57.618Z,24.30
2024-05-09T17:04:05.142Z,24.00
2024-05-09T17:08:10.836Z,23.50
2024-05-09T17:12:15.641Z,23.20
2024-05-09T17:16:20.996Z,23.00
2024-05-09T17:20:33.276Z,22.60
2024-05-09T17:24:40.802Z,22.40
2024-05-09T17:28:45.661Z,22.30
2024-05-09T17:32:50.689Z,22.10
2024-05-09T17:36:58.354Z,22.00
2024-05-09T17:41:03.400Z,21.70
2024-05-09T17:45:19.328Z,21.40
2024-05-09T17:49:24.264Z,21.20
2024-05-09T17:53:31.762Z,21.00
2024-05-09T17:57:37.327Z,20.90
2024-05-09T18:01:43.253Z,20.90
2024-05-09T18:05:50.874Z,20.70
2024-05-09T18:09:58.454Z,20.50
2024-05-09T18:14:06.088Z,20.20
2024-05-09T18:18:12.036Z,20.00
2024-05-09T18:22:17.528Z,19.80
2024-05-09T18:26:24.953Z,19.70
2024-05-09T18:30:34.775Z,19.60
2024-05-09T18:34:41.311Z,19.50
2024-05-09T18:38:46.428Z,19.50
2024-05-09T18:42:54.464Z,19.40
2024-05-09T18:47:01.948Z,19.30
2024-05-09T18:51:09.984Z,19.10
2024-05-09T18:55:16.301Z,18.80
2024-05-09T18:59:23.837Z,18.60
2024-05-09T19:03:28.751Z,18.60
2024-05-09T19:07:33.827Z,18.50
2024-05-09T19:11:40.206Z,18.40
2024-05-09T19:15:47.856Z,18.10
2024-05-09T19:19:52.776Z,17.80
2024-05-09T19:24:06.179Z,17.70
2024-05-09T19:33:23.235Z,17.50
2024-05-09T19:37:57.687Z,17.40
2024-05-09T19:42:07.338Z,17.40
2024-05-09T19:47:05.982Z,17.30
2024-05-09T19:51:30.025Z,17.10
2024-05-09T19:55:55.959Z,16.90
2024-05-09T20:00:32.440Z,16.90
2024-05-09T20:05:07.584Z,16.70
2024-05-09T20:14:14.626Z,16.70
2024-05-09T20:18:25.947Z,16.60
2024-05-09T20:22:55.088Z,16.50
2024-05-09T20:27:26.162Z,16.40
2024-05-09T20:31:40.743Z,16.10
2024-05-09T20:36:17.413Z,16.00
2024-05-09T20:40:51.202Z,15.70
2024-05-09T20:45:42.307Z,15.60
2024-05-09T20:50:44.573Z,15.50
2024-05-09T20:55:40.004Z,15.40
2024-05-09T21:00:18.853Z,15.20
2024-05-09T21:04:27.598Z,15.10
2024-05-09T21:08:32.464Z,15.10
2024-05-09T21:12:37.224Z,14.90
2024-05-09T21:16:44.802Z,14.80
2024-05-09T21:20:49.633Z,14.80
2024-05-09T21:24:54.332Z,14.60
2024-05-09T21:28:59.135Z,14.50
2024-05-09T21:33:06.838Z,14.40
2024-05-09T21:37:11.796Z,14.30
2024-05-09T21:41:16.593Z,14.30
2024-05-09T21:45:19.306Z,14.20
2024-05-09T21:49:26.649Z,14.00
2024-05-09T21:53:31.905Z,14.00
2024-05-09T21:57:37.051Z,14.00
2024-05-09T22:06:12.910Z,13.70
2024-05-09T22:10:25.658Z,13.80
2024-05-09T22:14:34.890Z,13.70
2024-05-09T22:18:37.184Z,13.70
2024-05-09T22:22:44.569Z,13.60
2024-05-09T22:26:52.114Z,13.50
2024-05-09T22:30:57.199Z,13.40
2024-05-09T22:35:02.008Z,13.30
2024-05-09T22:39:09.712Z,13.30
2024-05-09T22:43:14.658Z,13.30
2024-05-09T22:47:31.621Z,13.10
2024-05-09T22:51:38.807Z,13.10
2024-05-09T22:55:46.119Z,13.10
2024-05-09T22:59:50.873Z,13.00
2024-05-09T23:03:55.819Z,12.90
2024-05-09T23:08:00.861Z,12.80
2024-05-09T23:12:09.176Z,12.80
2024-05-09T23:16:11.609Z,12.80
2024-05-09T23:20:25.918Z,12.70
2024-05-09T23:24:35.569Z,12.70
2024-05-09T23:28:43.053Z,12.60
2024-05-09T23:32:47.761Z,12.60
2024-05-09T23:36:52.706Z,12.60
2024-05-09T23:40:57.526Z,12.50
2024-05-09T23:45:04.932Z,12.40
2024-05-09T23:49:11.309Z,12.40
2024-05-09T23:53:16.456Z,12.20
2024-05-09T23:57:21.091Z,12.10
